TimeCST,TemperatureF,Dew PointF,Humidity,Sea Level PressureIn,VisibilityMPH,Wind Direction,Wind SpeedMPH,Gust SpeedMPH,PrecipitationIn,Events,Conditions,WindDirDegrees,DateUTC
6:00 AM,76,73,87,29.86,9,SW,1.2,,,,Overcast,220,2013-08-27 12:00:00
6:00 AM,75.2,73.4,94,29.85,6.2,SW,1.2,-,N/A,,Scattered Clouds,220,2013-08-27 12:00:00
7:00 AM,78.8,73.4,83,29.87,6.2,West,2.3,-,N/A,,Scattered Clouds,280,2013-08-27 13:00:00
7:55 AM,82.4,73.4,74,29.89,6.2,NW,3.5,-,N/A,,Scattered Clouds,310,2013-08-27 13:55:00
8:00 AM,82.4,73.4,74,29.89,6.2,NW,3.5,-,N/A,,Scattered Clouds,310,2013-08-27 14:00:00
9:00 AM,85,73,61,29.90,9,NNW,3.5,,,,Haze,330,2013-08-27 15:00:00
9:00 AM,84.2,73.4,70,29.89,-9999.0,NNW,3.5,-,N/A,,Clear,330,2013-08-27 15:00:00
10:00 AM,84.2,75.2,74,29.88,6.2,NE,8.1,-,N/A,,Mostly Cloudy,50,2013-08-27 16:00:00
11:00 AM,86.0,73.4,66,29.88,6.2,NE,6.9,-,N/A,,Mostly Cloudy,40,2013-08-27 17:00:00
12:00 PM,85,74,63,29.87,9,NE,5.8,,,,Haze,50,2013-08-27 18:00:00
12:00 PM,86.0,73.4,66,29.85,6.2,NE,5.8,-,N/A,,Scattered Clouds,50,2013-08-27 18:00:00
1:00 PM,86.0,75.2,70,29.84,6.2,East,6.9,-,N/A,,Mostly Cloudy,80,2013-08-27 19:00:00
2:00 PM,86.0,75.2,70,29.82,6.2,East,6.9,-,N/A,,Mostly Cloudy,80,2013-08-27 20:00:00
3:00 PM,84,75,67,29.83,9,ESE,11.2,,,,Overcast,110,2013-08-27 21:00:00
3:00 PM,84.2,75.2,74,29.82,6.2,ESE,4.6,-,N/A,,Mostly Cloudy,110,2013-08-27 21:00:00
3:30 PM,84.2,75.2,74,29.81,1.9,NE,5.8,-,N/A,Rain,Rain,40,2013-08-27 21:30:00
4:00 PM,78.8,73.4,83,29.82,0.6,NNE,21.9,-,N/A,Rain-Thunderstorm,Heavy Thunderstorms and Rain,30,2013-08-27 22:00:00
4:35 PM,75.2,71.6,89,-9999,-9999.0,East,4.6,-,N/A,Rain-Thunderstorm,Heavy Thunderstorms and Rain,80,2013-08-27 22:35:00
5:00 PM,75.2,73.4,94,29.85,0.6,SW,1.2,-,N/A,Rain-Thunderstorm,Heavy Thunderstorms and Rain,220,2013-08-27 23:00:00
6:00 PM,75.2,73.4,94,29.88,2.5,SSE,6.9,-,N/A,Rain-Thunderstorm,Thunderstorms and Rain,160,2013-08-28 00:00:00